sensor_id;sensor_type;location;lat;lon;timestamp;P1;durP1;ratioP1;P2;durP2;ratioP2
6757;SDS011;3416;53.074;8.822;2023-07-30T00:02:19;11.83;;;10.70;;
6757;SDS011;3416;53.074;8.822;2023-07-30T00:04:46;11.50;;;9.80;;
6757;SDS011;3416;53.074;8.822;2023-07-30T00:07:14;20.23;;;12.10;;
6757;SDS011;3416;53.074;8.822;2023-07-30T00:09:43;13.60;;;12.40;;
6757;SDS011;3416;53.074;8.822;2023-07-30T00:12:09;13.77;;;12.23;;
6757;SDS011;3416;53.074;8.822;2023-07-30T00:14:36;12.50;;;10.77;;
6757;SDS011;3416;53.074;8.822;2023-07-30T00:17:03;11.43;;;10.33;;
6757;SDS011;3416;53.074;8.822;2023-07-30T00:19:30;12.37;;;11.17;;
6757;SDS011;3416;53.074;8.822;2023-07-30T00:21:58;11.73;;;10.57;;
6757;SDS011;3416;53.074;8.822;2023-07-30T00:24:25;12.97;;;11.70;;
6757;SDS011;3416;53.074;8.822;2023-07-30T00:26:53;13.50;;;12.20;;
6757;SDS011;3416;53.074;8.822;2023-07-30T00:29:20;13.17;;;11.80;;
6757;SDS011;3416;53.074;8.822;2023-07-30T00:31:47;11.37;;;10.27;;
6757;SDS011;3416;53.074;8.822;2023-07-30T00:34:14;11.83;;;10.73;;
6757;SDS011;3416;53.074;8.822;2023-07-30T00:36:41;13.70;;;11.10;;
6757;SDS011;3416;53.074;8.822;2023-07-30T00:39:07;12.90;;;10.93;;
6757;SDS011;3416;53.074;8.822;2023-07-30T00:41:36;15.30;;;12.23;;
6757;SDS011;3416;53.074;8.822;2023-07-30T00:44:04;12.10;;;11.00;;
6757;SDS011;3416;53.074;8.822;2023-07-30T00:46:31;11.63;;;10.53;;
6757;SDS011;3416;53.074;8.822;2023-07-30T00:48:58;13.90;;;10.27;;
6757;SDS011;3416;53.074;8.822;2023-07-30T00:51:25;11.10;;;9.50;;
6757;SDS011;3416;53.074;8.822;2023-07-30T00:53:53;12.90;;;11.60;;
6757;SDS011;3416;53.074;8.822;2023-07-30T00:56:20;13.13;;;9.70;;
6757;SDS011;3416;53.074;8.822;2023-07-30T00:58:47;12.33;;;11.03;;
6757;SDS011;3416;53.074;8.822;2023-07-30T01:01:16;10.80;;;9.50;;
6757;SDS011;3416;53.074;8.822;2023-07-30T01:03:44;10.50;;;8.50;;
6757;SDS011;3416;53.074;8.822;2023-07-30T01:06:11;13.13;;;10.70;;
6757;SDS011;3416;53.074;8.822;2023-07-30T01:08:38;10.60;;;9.60;;
6757;SDS011;3416;53.074;8.822;2023-07-30T01:11:05;12.33;;;10.20;;
6757;SDS011;3416;53.074;8.822;2023-07-30T01:13:34;12.07;;;10.00;;
6757;SDS011;3416;53.074;8.822;2023-07-30T01:16:02;15.93;;;11.53;;
6757;SDS011;3416;53.074;8.822;2023-07-30T01:18:33;12.67;;;11.17;;
6757;SDS011;3416;53.074;8.822;2023-07-30T01:21:01;14.97;;;11.80;;
6757;SDS011;3416;53.074;8.822;2023-07-30T01:23:28;12.40;;;11.10;;
6757;SDS011;3416;53.074;8.822;2023-07-30T01:25:57;12.73;;;10.93;;
6757;SDS011;3416;53.074;8.822;2023-07-30T01:28:29;11.47;;;10.37;;
6757;SDS011;3416;53.074;8.822;2023-07-30T01:31:02;10.63;;;9.60;;
6757;SDS011;3416;53.074;8.822;2023-07-30T01:33:31;14.23;;;12.60;;
6757;SDS011;3416;53.074;8.822;2023-07-30T01:35:58;14.43;;;10.73;;
6757;SDS011;3416;53.074;8.822;2023-07-30T01:38:27;36.20;;;22.10;;
6757;SDS011;3416;53.074;8.822;2023-07-30T01:40:55;12.87;;;11.07;;
6757;SDS011;3416;53.074;8.822;2023-07-30T01:43:22;13.47;;;12.10;;
6757;SDS011;3416;53.074;8.822;2023-07-30T01:45:49;18.58;;;12.50;;
6757;SDS011;3416;53.074;8.822;2023-07-30T01:48:16;15.10;;;10.53;;
6757;SDS011;3416;53.074;8.822;2023-07-30T01:50:43;15.93;;;11.63;;
6757;SDS011;3416;53.074;8.822;2023-07-30T01:53:12;11.83;;;10.27;;
6757;SDS011;3416;53.074;8.822;2023-07-30T01:55:40;14.30;;;11.17;;
6757;SDS011;3416;53.074;8.822;2023-07-30T01:58:11;13.98;;;9.52;;
6757;SDS011;3416;53.074;8.822;2023-07-30T02:00:38;14.85;;;11.13;;
6757;SDS011;3416;53.074;8.822;2023-07-30T02:03:05;13.82;;;11.07;;
6757;SDS011;3416;53.074;8.822;2023-07-30T02:05:32;10.90;;;9.90;;
6757;SDS011;3416;53.074;8.822;2023-07-30T02:07:59;15.63;;;11.20;;
6757;SDS011;3416;53.074;8.822;2023-07-30T02:10:27;13.93;;;10.73;;
6757;SDS011;3416;53.074;8.822;2023-07-30T02:12:55;14.00;;;10.77;;
6757;SDS011;3416;53.074;8.822;2023-07-30T02:15:22;13.27;;;10.00;;
6757;SDS011;3416;53.074;8.822;2023-07-30T02:17:49;11.02;;;10.00;;
6757;SDS011;3416;53.074;8.822;2023-07-30T02:20:16;11.45;;;10.10;;
6757;SDS011;3416;53.074;8.822;2023-07-30T02:22:43;15.55;;;11.40;;
6757;SDS011;3416;53.074;8.822;2023-07-30T02:25:11;14.75;;;11.05;;
6757;SDS011;3416;53.074;8.822;2023-07-30T02:27:37;12.27;;;11.02;;
6757;SDS011;3416;53.074;8.822;2023-07-30T02:30:08;11.80;;;10.57;;
6757;SDS011;3416;53.074;8.822;2023-07-30T02:32:35;14.60;;;11.93;;
6757;SDS011;3416;53.074;8.822;2023-07-30T02:35:02;14.05;;;10.05;;
6757;SDS011;3416;53.074;8.822;2023-07-30T02:37:30;14.52;;;11.80;;
6757;SDS011;3416;53.074;8.822;2023-07-30T02:39:57;17.47;;;15.67;;
6757;SDS011;3416;53.074;8.822;2023-07-30T02:42:24;20.35;;;11.15;;
6757;SDS011;3416;53.074;8.822;2023-07-30T02:44:51;13.38;;;10.50;;
6757;SDS011;3416;53.074;8.822;2023-07-30T02:47:19;18.33;;;12.57;;
6757;SDS011;3416;53.074;8.822;2023-07-30T02:49:46;15.25;;;9.75;;
6757;SDS011;3416;53.074;8.822;2023-07-30T02:52:13;16.10;;;13.45;;
6757;SDS011;3416;53.074;8.822;2023-07-30T02:54:45;14.55;;;13.10;;
6757;SDS011;3416;53.074;8.822;2023-07-30T02:57:12;15.50;;;12.05;;
6757;SDS011;3416;53.074;8.822;2023-07-30T02:59:40;16.73;;;13.68;;
6757;SDS011;3416;53.074;8.822;2023-07-30T03:02:07;20.27;;;12.70;;
6757;SDS011;3416;53.074;8.822;2023-07-30T03:04:35;17.88;;;11.10;;
6757;SDS011;3416;53.074;8.822;2023-07-30T03:07:02;18.83;;;12.18;;
6757;SDS011;3416;53.074;8.822;2023-07-30T03:09:29;10.48;;;9.18;;
6757;SDS011;3416;53.074;8.822;2023-07-30T03:11:56;15.75;;;11.50;;
6757;SDS011;3416;53.074;8.822;2023-07-30T03:14:23;15.45;;;12.20;;
6757;SDS011;3416;53.074;8.822;2023-07-30T03:16:50;17.47;;;11.33;;
6757;SDS011;3416;53.074;8.822;2023-07-30T03:19:17;11.77;;;10.57;;
6757;SDS011;3416;53.074;8.822;2023-07-30T03:21:45;12.00;;;10.68;;
6757;SDS011;3416;53.074;8.822;2023-07-30T03:24:12;12.70;;;10.93;;
6757;SDS011;3416;53.074;8.822;2023-07-30T03:26:39;13.53;;;12.00;;
6757;SDS011;3416;53.074;8.822;2023-07-30T03:29:06;21.77;;;14.93;;
6757;SDS011;3416;53.074;8.822;2023-07-30T03:31:33;15.00;;;13.15;;
6757;SDS011;3416;53.074;8.822;2023-07-30T03:34:00;16.30;;;12.35;;
6757;SDS011;3416;53.074;8.822;2023-07-30T03:36:26;18.65;;;12.95;;
6757;SDS011;3416;53.074;8.822;2023-07-30T03:38:55;23.08;;;15.25;;
6757;SDS011;3416;53.074;8.822;2023-07-30T03:41:22;15.98;;;12.27;;
6757;SDS011;3416;53.074;8.822;2023-07-30T03:43:49;20.17;;;13.30;;
6757;SDS011;3416;53.074;8.822;2023-07-30T03:46:16;22.70;;;11.57;;
6757;SDS011;3416;53.074;8.822;2023-07-30T03:48:42;12.67;;;11.37;;
6757;SDS011;3416;53.074;8.822;2023-07-30T03:51:10;17.23;;;11.63;;
6757;SDS011;3416;53.074;8.822;2023-07-30T03:53:37;16.52;;;11.90;;
6757;SDS011;3416;53.074;8.822;2023-07-30T03:56:06;19.50;;;12.73;;
6757;SDS011;3416;53.074;8.822;2023-07-30T03:58:32;13.95;;;9.88;;
6757;SDS011;3416;53.074;8.822;2023-07-30T04:01:01;17.90;;;8.90;;
6757;SDS011;3416;53.074;8.822;2023-07-30T04:03:27;21.30;;;9.77;;
6757;SDS011;3416;53.074;8.822;2023-07-30T04:05:54;10.48;;;8.40;;
6757;SDS011;3416;53.074;8.822;2023-07-30T04:08:21;15.55;;;8.70;;
6757;SDS011;3416;53.074;8.822;2023-07-30T04:10:48;16.88;;;10.07;;
6757;SDS011;3416;53.074;8.822;2023-07-30T04:13:16;13.55;;;9.05;;
6757;SDS011;3416;53.074;8.822;2023-07-30T04:15:43;12.48;;;7.60;;
6757;SDS011;3416;53.074;8.822;2023-07-30T04:18:10;13.80;;;7.40;;
6757;SDS011;3416;53.074;8.822;2023-07-30T04:20:37;13.93;;;6.90;;
6757;SDS011;3416;53.074;8.822;2023-07-30T04:23:04;15.35;;;7.80;;
6757;SDS011;3416;53.074;8.822;2023-07-30T04:25:31;16.98;;;9.38;;
6757;SDS011;3416;53.074;8.822;2023-07-30T04:27:58;9.02;;;6.38;;
6757;SDS011;3416;53.074;8.822;2023-07-30T04:30:26;13.30;;;5.97;;
6757;SDS011;3416;53.074;8.822;2023-07-30T04:32:53;17.95;;;8.10;;
6757;SDS011;3416;53.074;8.822;2023-07-30T04:35:20;12.95;;;5.35;;
6757;SDS011;3416;53.074;8.822;2023-07-30T04:37:47;13.88;;;5.82;;
6757;SDS011;3416;53.074;8.822;2023-07-30T04:40:13;17.60;;;5.70;;
6757;SDS011;3416;53.074;8.822;2023-07-30T04:42:40;11.93;;;6.67;;
6757;SDS011;3416;53.074;8.822;2023-07-30T04:45:08;15.88;;;5.38;;
6757;SDS011;3416;53.074;8.822;2023-07-30T04:47:37;12.30;;;4.90;;
6757;SDS011;3416;53.074;8.822;2023-07-30T04:50:04;8.73;;;4.67;;
6757;SDS011;3416;53.074;8.822;2023-07-30T04:52:32;13.07;;;4.43;;
6757;SDS011;3416;53.074;8.822;2023-07-30T04:54:59;11.73;;;5.47;;
6757;SDS011;3416;53.074;8.822;2023-07-30T04:57:26;10.73;;;4.00;;
6757;SDS011;3416;53.074;8.822;2023-07-30T04:59:53;8.03;;;3.90;;
6757;SDS011;3416;53.074;8.822;2023-07-30T05:02:23;13.10;;;4.27;;
6757;SDS011;3416;53.074;8.822;2023-07-30T05:04:52;11.90;;;4.87;;
6757;SDS011;3416;53.074;8.822;2023-07-30T05:07:19;11.67;;;3.60;;
6757;SDS011;3416;53.074;8.822;2023-07-30T05:09:45;7.50;;;4.13;;
6757;SDS011;3416;53.074;8.822;2023-07-30T05:12:12;9.63;;;4.17;;
6757;SDS011;3416;53.074;8.822;2023-07-30T05:14:39;10.93;;;5.00;;
6757;SDS011;3416;53.074;8.822;2023-07-30T05:17:07;8.50;;;4.20;;
6757;SDS011;3416;53.074;8.822;2023-07-30T05:19:34;8.07;;;3.50;;
6757;SDS011;3416;53.074;8.822;2023-07-30T05:22:04;10.93;;;3.73;;
6757;SDS011;3416;53.074;8.822;2023-07-30T05:24:32;6.70;;;3.73;;
6757;SDS011;3416;53.074;8.822;2023-07-30T05:27:04;9.57;;;3.57;;
6757;SDS011;3416;53.074;8.822;2023-07-30T05:29:31;9.87;;;4.57;;
6757;SDS011;3416;53.074;8.822;2023-07-30T05:31:58;6.50;;;3.40;;
6757;SDS011;3416;53.074;8.822;2023-07-30T05:34:25;9.63;;;3.53;;
6757;SDS011;3416;53.074;8.822;2023-07-30T05:36:52;5.83;;;3.03;;
6757;SDS011;3416;53.074;8.822;2023-07-30T05:39:20;9.07;;;3.87;;
6757;SDS011;3416;53.074;8.822;2023-07-30T05:41:48;8.67;;;4.07;;
6757;SDS011;3416;53.074;8.822;2023-07-30T05:44:16;8.70;;;3.77;;
6757;SDS011;3416;53.074;8.822;2023-07-30T05:46:43;7.07;;;3.80;;
6757;SDS011;3416;53.074;8.822;2023-07-30T05:49:09;9.93;;;3.90;;
6757;SDS011;3416;53.074;8.822;2023-07-30T05:51:37;9.87;;;3.40;;
6757;SDS011;3416;53.074;8.822;2023-07-30T05:54:03;9.20;;;4.10;;
6757;SDS011;3416;53.074;8.822;2023-07-30T05:56:32;9.20;;;3.77;;
6757;SDS011;3416;53.074;8.822;2023-07-30T05:58:58;13.73;;;5.20;;
6757;SDS011;3416;53.074;8.822;2023-07-30T06:01:25;13.47;;;4.60;;
6757;SDS011;3416;53.074;8.822;2023-07-30T06:03:52;8.30;;;4.37;;
6757;SDS011;3416;53.074;8.822;2023-07-30T06:06:19;12.13;;;4.47;;
6757;SDS011;3416;53.074;8.822;2023-07-30T06:08:52;10.70;;;3.90;;
6757;SDS011;3416;53.074;8.822;2023-07-30T06:11:19;8.33;;;3.50;;
6757;SDS011;3416;53.074;8.822;2023-07-30T06:13:47;8.87;;;3.57;;
6757;SDS011;3416;53.074;8.822;2023-07-30T06:16:14;7.33;;;3.23;;
6757;SDS011;3416;53.074;8.822;2023-07-30T06:18:44;5.90;;;3.33;;
6757;SDS011;3416;53.074;8.822;2023-07-30T06:21:11;8.73;;;3.60;;
6757;SDS011;3416;53.074;8.822;2023-07-30T06:23:38;10.67;;;3.40;;
6757;SDS011;3416;53.074;8.822;2023-07-30T06:26:04;10.07;;;4.13;;
6757;SDS011;3416;53.074;8.822;2023-07-30T06:28:32;9.27;;;4.43;;
6757;SDS011;3416;53.074;8.822;2023-07-30T06:31:01;12.23;;;3.70;;
6757;SDS011;3416;53.074;8.822;2023-07-30T06:33:28;7.33;;;3.53;;
6757;SDS011;3416;53.074;8.822;2023-07-30T06:35:55;6.77;;;3.97;;
6757;SDS011;3416;53.074;8.822;2023-07-30T06:38:22;11.03;;;4.00;;
6757;SDS011;3416;53.074;8.822;2023-07-30T06:40:49;7.63;;;4.30;;
6757;SDS011;3416;53.074;8.822;2023-07-30T06:43:16;11.40;;;3.80;;
6757;SDS011;3416;53.074;8.822;2023-07-30T06:45:43;6.10;;;3.73;;
6757;SDS011;3416;53.074;8.822;2023-07-30T06:48:11;9.17;;;3.40;;
6757;SDS011;3416;53.074;8.822;2023-07-30T06:50:38;10.20;;;4.20;;
6757;SDS011;3416;53.074;8.822;2023-07-30T06:53:05;12.03;;;4.10;;
6757;SDS011;3416;53.074;8.822;2023-07-30T06:55:32;11.20;;;5.13;;
6757;SDS011;3416;53.074;8.822;2023-07-30T06:57:59;13.03;;;5.57;;
6757;SDS011;3416;53.074;8.822;2023-07-30T07:00:26;12.00;;;5.43;;
6757;SDS011;3416;53.074;8.822;2023-07-30T07:02:53;11.93;;;4.20;;
6757;SDS011;3416;53.074;8.822;2023-07-30T07:05:21;12.77;;;5.67;;
6757;SDS011;3416;53.074;8.822;2023-07-30T07:07:48;10.20;;;5.00;;
6757;SDS011;3416;53.074;8.822;2023-07-30T07:10:15;10.47;;;4.67;;
6757;SDS011;3416;53.074;8.822;2023-07-30T07:12:43;10.30;;;4.93;;
6757;SDS011;3416;53.074;8.822;2023-07-30T07:15:10;13.50;;;6.30;;
6757;SDS011;3416;53.074;8.822;2023-07-30T07:17:37;14.07;;;5.10;;
6757;SDS011;3416;53.074;8.822;2023-07-30T07:20:05;16.60;;;5.30;;
6757;SDS011;3416;53.074;8.822;2023-07-30T07:22:35;10.37;;;4.70;;
6757;SDS011;3416;53.074;8.822;2023-07-30T07:25:02;16.13;;;4.90;;
6757;SDS011;3416;53.074;8.822;2023-07-30T07:27:29;9.43;;;4.97;;
6757;SDS011;3416;53.074;8.822;2023-07-30T07:29:56;14.63;;;6.30;;
6757;SDS011;3416;53.074;8.822;2023-07-30T07:32:24;18.37;;;6.07;;
6757;SDS011;3416;53.074;8.822;2023-07-30T07:34:50;12.97;;;5.20;;
6757;SDS011;3416;53.074;8.822;2023-07-30T07:37:17;11.33;;;4.33;;
6757;SDS011;3416;53.074;8.822;2023-07-30T07:39:46;16.63;;;5.47;;
6757;SDS011;3416;53.074;8.822;2023-07-30T07:42:13;9.43;;;5.13;;
6757;SDS011;3416;53.074;8.822;2023-07-30T07:44:40;12.87;;;4.30;;
6757;SDS011;3416;53.074;8.822;2023-07-30T07:47:09;14.10;;;4.90;;
6757;SDS011;3416;53.074;8.822;2023-07-30T07:49:35;12.20;;;5.07;;
6757;SDS011;3416;53.074;8.822;2023-07-30T07:52:02;10.07;;;4.30;;
6757;SDS011;3416;53.074;8.822;2023-07-30T07:54:30;11.17;;;4.50;;
6757;SDS011;3416;53.074;8.822;2023-07-30T07:56:58;16.10;;;4.83;;
6757;SDS011;3416;53.074;8.822;2023-07-30T07:59:25;14.80;;;5.10;;
6757;SDS011;3416;53.074;8.822;2023-07-30T08:01:53;20.70;;;5.33;;
6757;SDS011;3416;53.074;8.822;2023-07-30T08:04:19;10.90;;;4.10;;
6757;SDS011;3416;53.074;8.822;2023-07-30T08:06:47;12.83;;;4.47;;
6757;SDS011;3416;53.074;8.822;2023-07-30T08:09:14;9.03;;;3.60;;
6757;SDS011;3416;53.074;8.822;2023-07-30T08:11:41;12.23;;;5.13;;
6757;SDS011;3416;53.074;8.822;2023-07-30T08:14:11;13.30;;;4.10;;
6757;SDS011;3416;53.074;8.822;2023-07-30T08:16:38;11.30;;;4.43;;
6757;SDS011;3416;53.074;8.822;2023-07-30T08:19:05;17.57;;;4.57;;
6757;SDS011;3416;53.074;8.822;2023-07-30T08:21:32;12.17;;;4.10;;
6757;SDS011;3416;53.074;8.822;2023-07-30T08:23:59;8.53;;;4.43;;
6757;SDS011;3416;53.074;8.822;2023-07-30T08:26:25;10.53;;;4.13;;
6757;SDS011;3416;53.074;8.822;2023-07-30T08:28:52;19.10;;;4.33;;
6757;SDS011;3416;53.074;8.822;2023-07-30T08:31:21;14.60;;;4.50;;
6757;SDS011;3416;53.074;8.822;2023-07-30T08:33:49;16.80;;;5.13;;
6757;SDS011;3416;53.074;8.822;2023-07-30T08:36:16;10.57;;;4.27;;
6757;SDS011;3416;53.074;8.822;2023-07-30T08:38:44;11.60;;;4.47;;
6757;SDS011;3416;53.074;8.822;2023-07-30T08:41:11;10.10;;;4.30;;
6757;SDS011;3416;53.074;8.822;2023-07-30T08:43:38;8.97;;;4.80;;
6757;SDS011;3416;53.074;8.822;2023-07-30T08:46:05;10.57;;;5.00;;
6757;SDS011;3416;53.074;8.822;2023-07-30T08:48:39;14.93;;;6.50;;
6757;SDS011;3416;53.074;8.822;2023-07-30T08:51:06;17.47;;;4.70;;
6757;SDS011;3416;53.074;8.822;2023-07-30T08:53:33;6.23;;;4.33;;
6757;SDS011;3416;53.074;8.822;2023-07-30T08:56:00;9.03;;;4.30;;
6757;SDS011;3416;53.074;8.822;2023-07-30T08:58:28;13.80;;;5.50;;
6757;SDS011;3416;53.074;8.822;2023-07-30T09:00:57;11.70;;;6.03;;
6757;SDS011;3416;53.074;8.822;2023-07-30T09:03:25;9.77;;;5.50;;
6757;SDS011;3416;53.074;8.822;2023-07-30T09:05:56;12.30;;;5.27;;
6757;SDS011;3416;53.074;8.822;2023-07-30T09:08:23;19.57;;;5.50;;
6757;SDS011;3416;53.074;8.822;2023-07-30T09:10:50;9.67;;;5.03;;
6757;SDS011;3416;53.074;8.822;2023-07-30T09:13:20;12.33;;;5.97;;
6757;SDS011;3416;53.074;8.822;2023-07-30T09:15:48;10.43;;;5.93;;
6757;SDS011;3416;53.074;8.822;2023-07-30T09:18:16;15.47;;;5.63;;
6757;SDS011;3416;53.074;8.822;2023-07-30T09:20:43;8.70;;;4.80;;
6757;SDS011;3416;53.074;8.822;2023-07-30T09:23:12;13.80;;;5.60;;
6757;SDS011;3416;53.074;8.822;2023-07-30T09:25:38;9.83;;;5.00;;
6757;SDS011;3416;53.074;8.822;2023-07-30T09:28:06;14.07;;;5.60;;
6757;SDS011;3416;53.074;8.822;2023-07-30T09:30:33;11.10;;;4.33;;
6757;SDS011;3416;53.074;8.822;2023-07-30T09:33:00;8.87;;;5.20;;
6757;SDS011;3416;53.074;8.822;2023-07-30T09:35:27;17.83;;;5.63;;
6757;SDS011;3416;53.074;8.822;2023-07-30T09:37:57;16.63;;;6.57;;
6757;SDS011;3416;53.074;8.822;2023-07-30T09:40:35;9.43;;;4.80;;
6757;SDS011;3416;53.074;8.822;2023-07-30T09:43:04;16.60;;;6.57;;
6757;SDS011;3416;53.074;8.822;2023-07-30T09:45:33;14.07;;;5.60;;
6757;SDS011;3416;53.074;8.822;2023-07-30T09:48:01;9.30;;;6.00;;
6757;SDS011;3416;53.074;8.822;2023-07-30T09:50:30;11.60;;;5.73;;
6757;SDS011;3416;53.074;8.822;2023-07-30T09:52:57;16.13;;;6.37;;
6757;SDS011;3416;53.074;8.822;2023-07-30T09:55:27;15.67;;;6.30;;
6757;SDS011;3416;53.074;8.822;2023-07-30T09:57:55;9.27;;;5.30;;
6757;SDS011;3416;53.074;8.822;2023-07-30T10:00:23;14.90;;;6.57;;
6757;SDS011;3416;53.074;8.822;2023-07-30T10:02:50;7.47;;;5.80;;
6757;SDS011;3416;53.074;8.822;2023-07-30T10:05:21;13.30;;;5.83;;
6757;SDS011;3416;53.074;8.822;2023-07-30T10:07:55;11.20;;;5.23;;
6757;SDS011;3416;53.074;8.822;2023-07-30T10:10:25;11.83;;;5.00;;
6757;SDS011;3416;53.074;8.822;2023-07-30T10:12:57;11.10;;;6.03;;
6757;SDS011;3416;53.074;8.822;2023-07-30T10:15:28;12.23;;;5.50;;
6757;SDS011;3416;53.074;8.822;2023-07-30T10:17:56;10.63;;;4.50;;
6757;SDS011;3416;53.074;8.822;2023-07-30T10:20:24;10.70;;;4.40;;
6757;SDS011;3416;53.074;8.822;2023-07-30T10:22:52;11.33;;;4.63;;
6757;SDS011;3416;53.074;8.822;2023-07-30T10:25:25;10.80;;;4.70;;
6757;SDS011;3416;53.074;8.822;2023-07-30T10:27:54;12.50;;;5.03;;
6757;SDS011;3416;53.074;8.822;2023-07-30T10:30:27;12.20;;;5.30;;
6757;SDS011;3416;53.074;8.822;2023-07-30T10:32:57;10.87;;;4.63;;
6757;SDS011;3416;53.074;8.822;2023-07-30T10:35:38;10.60;;;4.50;;
6757;SDS011;3416;53.074;8.822;2023-07-30T10:38:15;9.63;;;4.30;;
6757;SDS011;3416;53.074;8.822;2023-07-30T10:41:02;8.80;;;4.90;;
6757;SDS011;3416;53.074;8.822;2023-07-30T10:43:31;7.63;;;3.73;;
6757;SDS011;3416;53.074;8.822;2023-07-30T10:46:02;11.23;;;4.43;;
6757;SDS011;3416;53.074;8.822;2023-07-30T10:48:29;14.30;;;5.13;;
6757;SDS011;3416;53.074;8.822;2023-07-30T10:50:58;11.73;;;4.40;;
6757;SDS011;3416;53.074;8.822;2023-07-30T10:53:27;11.20;;;4.13;;
6757;SDS011;3416;53.074;8.822;2023-07-30T10:55:54;11.63;;;5.83;;
6757;SDS011;3416;53.074;8.822;2023-07-30T10:58:25;8.10;;;5.03;;
6757;SDS011;3416;53.074;8.822;2023-07-30T11:00:52;7.40;;;4.27;;
6757;SDS011;3416;53.074;8.822;2023-07-30T11:03:20;10.03;;;4.37;;
6757;SDS011;3416;53.074;8.822;2023-07-30T11:05:50;9.00;;;4.07;;
6757;SDS011;3416;53.074;8.822;2023-07-30T11:08:18;7.80;;;3.70;;
6757;SDS011;3416;53.074;8.822;2023-07-30T11:10:45;7.77;;;4.20;;
6757;SDS011;3416;53.074;8.822;2023-07-30T11:13:13;6.97;;;3.80;;
6757;SDS011;3416;53.074;8.822;2023-07-30T11:15:41;7.20;;;3.83;;
6757;SDS011;3416;53.074;8.822;2023-07-30T11:18:09;9.53;;;3.83;;
6757;SDS011;3416;53.074;8.822;2023-07-30T11:20:38;12.90;;;4.90;;
6757;SDS011;3416;53.074;8.822;2023-07-30T11:23:18;8.47;;;3.40;;
6757;SDS011;3416;53.074;8.822;2023-07-30T11:25:48;5.43;;;3.73;;
6757;SDS011;3416;53.074;8.822;2023-07-30T11:28:28;7.20;;;4.37;;
6757;SDS011;3416;53.074;8.822;2023-07-30T11:30:57;12.47;;;5.60;;
6757;SDS011;3416;53.074;8.822;2023-07-30T11:33:26;8.17;;;3.30;;
6757;SDS011;3416;53.074;8.822;2023-07-30T11:35:55;5.50;;;3.10;;
6757;SDS011;3416;53.074;8.822;2023-07-30T11:38:22;8.47;;;3.43;;
6757;SDS011;3416;53.074;8.822;2023-07-30T11:40:50;12.27;;;4.13;;
6757;SDS011;3416;53.074;8.822;2023-07-30T11:43:18;8.37;;;4.00;;
6757;SDS011;3416;53.074;8.822;2023-07-30T11:45:45;11.70;;;3.93;;
6757;SDS011;3416;53.074;8.822;2023-07-30T11:48:12;7.10;;;4.10;;
6757;SDS011;3416;53.074;8.822;2023-07-30T11:50:47;10.50;;;4.80;;
6757;SDS011;3416;53.074;8.822;2023-07-30T11:53:16;11.97;;;4.70;;
6757;SDS011;3416;53.074;8.822;2023-07-30T11:55:45;11.40;;;4.20;;
6757;SDS011;3416;53.074;8.822;2023-07-30T11:58:12;10.93;;;4.20;;
6757;SDS011;3416;53.074;8.822;2023-07-30T12:00:40;8.47;;;4.10;;
6757;SDS011;3416;53.074;8.822;2023-07-30T12:03:09;8.07;;;4.23;;
6757;SDS011;3416;53.074;8.822;2023-07-30T12:05:38;8.20;;;4.73;;
6757;SDS011;3416;53.074;8.822;2023-07-30T12:08:06;7.80;;;5.80;;
6757;SDS011;3416;53.074;8.822;2023-07-30T12:10:43;10.50;;;4.30;;
6757;SDS011;3416;53.074;8.822;2023-07-30T12:13:12;11.03;;;5.10;;
6757;SDS011;3416;53.074;8.822;2023-07-30T12:15:42;12.63;;;5.13;;
6757;SDS011;3416;53.074;8.822;2023-07-30T12:18:10;10.83;;;4.50;;
6757;SDS011;3416;53.074;8.822;2023-07-30T12:20:36;3.70;;;2.20;;
6757;SDS011;3416;53.074;8.822;2023-07-30T12:23:03;6.00;;;3.10;;
6757;SDS011;3416;53.074;8.822;2023-07-30T12:25:30;5.50;;;2.67;;
6757;SDS011;3416;53.074;8.822;2023-07-30T12:27:58;4.70;;;2.87;;
6757;SDS011;3416;53.074;8.822;2023-07-30T12:30:25;6.33;;;2.50;;
6757;SDS011;3416;53.074;8.822;2023-07-30T12:32:52;3.60;;;2.07;;
6757;SDS011;3416;53.074;8.822;2023-07-30T12:35:20;3.53;;;2.13;;
6757;SDS011;3416;53.074;8.822;2023-07-30T12:37:47;5.70;;;2.40;;
6757;SDS011;3416;53.074;8.822;2023-07-30T12:40:14;6.90;;;2.40;;
6757;SDS011;3416;53.074;8.822;2023-07-30T12:42:41;5.17;;;2.77;;
6757;SDS011;3416;53.074;8.822;2023-07-30T12:45:09;9.23;;;3.00;;
6757;SDS011;3416;53.074;8.822;2023-07-30T12:47:36;7.17;;;2.70;;
6757;SDS011;3416;53.074;8.822;2023-07-30T12:50:03;5.70;;;2.70;;
6757;SDS011;3416;53.074;8.822;2023-07-30T12:52:31;5.87;;;2.80;;
6757;SDS011;3416;53.074;8.822;2023-07-30T12:54:59;5.80;;;2.37;;
6757;SDS011;3416;53.074;8.822;2023-07-30T12:57:25;4.07;;;2.33;;
6757;SDS011;3416;53.074;8.822;2023-07-30T12:59:53;4.90;;;4.10;;
6757;SDS011;3416;53.074;8.822;2023-07-30T13:02:23;4.80;;;2.53;;
6757;SDS011;3416;53.074;8.822;2023-07-30T13:04:50;7.00;;;3.20;;
6757;SDS011;3416;53.074;8.822;2023-07-30T13:07:24;4.17;;;3.20;;
6757;SDS011;3416;53.074;8.822;2023-07-30T13:10:03;8.73;;;3.00;;
6757;SDS011;3416;53.074;8.822;2023-07-30T13:12:32;4.80;;;3.17;;
6757;SDS011;3416;53.074;8.822;2023-07-30T13:15:00;6.83;;;2.80;;
6757;SDS011;3416;53.074;8.822;2023-07-30T13:17:30;10.77;;;4.40;;
6757;SDS011;3416;53.074;8.822;2023-07-30T13:19:57;5.67;;;3.23;;
6757;SDS011;3416;53.074;8.822;2023-07-30T13:22:24;5.00;;;2.97;;
6757;SDS011;3416;53.074;8.822;2023-07-30T13:24:51;5.73;;;2.93;;
6757;SDS011;3416;53.074;8.822;2023-07-30T13:27:18;8.10;;;2.43;;
6757;SDS011;3416;53.074;8.822;2023-07-30T13:29:45;9.33;;;2.93;;
6757;SDS011;3416;53.074;8.822;2023-07-30T13:32:14;5.50;;;2.30;;
6757;SDS011;3416;53.074;8.822;2023-07-30T13:34:43;6.03;;;2.53;;
6757;SDS011;3416;53.074;8.822;2023-07-30T13:37:10;4.63;;;2.60;;
6757;SDS011;3416;53.074;8.822;2023-07-30T13:39:37;7.10;;;2.60;;
6757;SDS011;3416;53.074;8.822;2023-07-30T13:42:05;7.27;;;2.43;;
6757;SDS011;3416;53.074;8.822;2023-07-30T13:44:32;7.10;;;2.60;;
6757;SDS011;3416;53.074;8.822;2023-07-30T13:46:59;7.83;;;3.30;;
6757;SDS011;3416;53.074;8.822;2023-07-30T13:49:26;5.00;;;2.77;;
6757;SDS011;3416;53.074;8.822;2023-07-30T13:51:54;6.00;;;2.33;;
6757;SDS011;3416;53.074;8.822;2023-07-30T13:54:21;6.47;;;2.63;;
6757;SDS011;3416;53.074;8.822;2023-07-30T13:56:48;5.17;;;3.03;;
6757;SDS011;3416;53.074;8.822;2023-07-30T13:59:15;5.67;;;2.80;;
6757;SDS011;3416;53.074;8.822;2023-07-30T14:01:44;4.03;;;2.20;;
6757;SDS011;3416;53.074;8.822;2023-07-30T14:04:11;7.60;;;2.60;;
6757;SDS011;3416;53.074;8.822;2023-07-30T14:06:38;4.70;;;2.53;;
6757;SDS011;3416;53.074;8.822;2023-07-30T14:09:06;5.77;;;2.07;;
6757;SDS011;3416;53.074;8.822;2023-07-30T14:11:33;6.23;;;2.63;;
6757;SDS011;3416;53.074;8.822;2023-07-30T14:13:59;7.27;;;2.73;;
6757;SDS011;3416;53.074;8.822;2023-07-30T14:16:26;4.97;;;2.50;;
6757;SDS011;3416;53.074;8.822;2023-07-30T14:18:53;5.93;;;2.60;;
6757;SDS011;3416;53.074;8.822;2023-07-30T14:21:20;6.93;;;3.03;;
6757;SDS011;3416;53.074;8.822;2023-07-30T14:23:47;6.37;;;2.53;;
6757;SDS011;3416;53.074;8.822;2023-07-30T14:26:15;7.33;;;2.37;;
6757;SDS011;3416;53.074;8.822;2023-07-30T14:28:42;4.40;;;2.90;;
6757;SDS011;3416;53.074;8.822;2023-07-30T14:31:10;6.40;;;3.50;;
6757;SDS011;3416;53.074;8.822;2023-07-30T14:33:37;7.07;;;3.50;;
6757;SDS011;3416;53.074;8.822;2023-07-30T14:36:04;5.40;;;2.47;;
6757;SDS011;3416;53.074;8.822;2023-07-30T14:38:31;7.43;;;3.00;;
6757;SDS011;3416;53.074;8.822;2023-07-30T14:40:59;6.90;;;2.60;;
6757;SDS011;3416;53.074;8.822;2023-07-30T14:43:28;7.60;;;2.90;;
6757;SDS011;3416;53.074;8.822;2023-07-30T14:45:55;9.20;;;2.77;;
6757;SDS011;3416;53.074;8.822;2023-07-30T14:48:22;5.30;;;2.67;;
6757;SDS011;3416;53.074;8.822;2023-07-30T14:50:49;5.50;;;2.60;;
6757;SDS011;3416;53.074;8.822;2023-07-30T14:53:16;14.60;;;4.80;;
6757;SDS011;3416;53.074;8.822;2023-07-30T14:55:43;11.53;;;4.50;;
6757;SDS011;3416;53.074;8.822;2023-07-30T14:58:10;8.67;;;4.10;;
6757;SDS011;3416;53.074;8.822;2023-07-30T15:00:38;7.27;;;3.27;;
6757;SDS011;3416;53.074;8.822;2023-07-30T15:03:05;8.43;;;3.50;;
6757;SDS011;3416;53.074;8.822;2023-07-30T15:05:32;7.37;;;4.50;;
6757;SDS011;3416;53.074;8.822;2023-07-30T15:07:59;5.27;;;3.40;;